Time;durP1;ratioP1;P1;durP2;ratioP2;P2;SDS_P1;SDS_P2;PMS_P1;PMS_P2;Temp;Humidity;BMP_temperature;BMP_pressure;BME280_temperature;BME280_humidity;BME280_pressure;Samples;Min_cycle;Max_cycle;Signal;HPM_P1;HPM_P2
2022/02/13 00:01:02;;;;;;;;;25.00;24.00;;;;;1.61;75.21;101595.44;5081755;27;47332;-75
2022/02/13 00:03:28;;;;;;;;;25.00;22.50;;;;;1.63;75.18;101597.03;5081470;27;45253;-75
2022/02/13 00:05:53;;;;;;;;;33.75;32.25;;;;;1.71;75.93;101608.84;5100121;27;45187;-75
2022/02/13 00:08:18;;;;;;;;;31.50;29.50;;;;;1.66;75.50;101584.66;5099774;27;45532;-75
2022/02/13 00:10:44;;;;;;;;;32.25;29.00;;;;;1.52;75.07;101565.41;5081409;27;47067;-75
2022/02/13 00:13:09;;;;;;;;;29.50;27.00;;;;;1.71;75.18;101591.31;5099822;27;45301;-75
2022/02/13 00:15:35;;;;;;;;;33.25;31.25;;;;;1.62;75.28;101592.72;5100037;27;45739;-76
2022/02/13 00:18:00;;;;;;;;;32.75;31.75;;;;;1.62;75.11;101591.91;5099864;27;45485;-75
2022/02/13 00:20:26;;;;;;;;;29.75;27.75;;;;;1.57;75.47;101579.06;5081449;27;46260;-75
2022/02/13 00:22:51;;;;;;;;;34.25;32.25;;;;;1.55;75.04;101582.72;5099643;27;45739;-75
2022/02/13 00:25:18;;;;;;;;;35.00;31.75;;;;;1.52;75.50;101583.75;5099831;27;45495;-75
2022/02/13 00:27:45;;;;;;;;;34.00;33.75;;;;;1.45;75.45;101567.56;5081192;27;46183;-75
2022/02/13 00:30:13;;;;;;;;;38.75;34.25;;;;;1.46;75.45;101571.00;5101552;27;45567;-75
2022/02/13 00:32:39;;;;;;;;;26.25;26.25;;;;;1.34;76.19;101546.41;5084924;27;45804;-75
2022/02/13 00:35:04;;;;;;;;;30.50;29.25;;;;;1.41;76.16;101554.75;5084778;27;45362;-76
2022/02/13 00:37:30;;;;;;;;;31.75;30.50;;;;;1.33;75.95;101544.72;5102644;27;45243;-75
2022/02/13 00:39:55;;;;;;;;;31.50;27.75;;;;;1.32;76.09;101538.63;5084415;27;47435;-75
2022/02/13 00:42:20;;;;;;;;;31.75;30.25;;;;;1.30;75.29;101537.06;5103091;27;45203;-75
2022/02/13 00:44:46;;;;;;;;;30.75;29.75;;;;;1.36;75.83;101544.53;5103030;27;45243;-76
2022/02/13 00:47:13;;;;;;;;;31.25;28.25;;;;;1.32;75.09;101546.50;5103151;27;45157;-75
2022/02/13 00:49:38;;;;;;;;;32.75;28.75;;;;;1.22;75.20;101529.66;5102857;27;46592;-75
2022/02/13 00:52:04;;;;;;;;;33.75;31.50;;;;;1.16;75.70;101509.09;5084276;27;45385;-75
2022/02/13 00:54:32;;;;;;;;;34.75;34.50;;;;;1.03;75.89;101486.28;5102914;27;45313;-75
2022/02/13 00:56:58;;;;;;;;;28.00;28.00;;;;;1.11;75.96;101504.16;5102748;27;45559;-75
2022/02/13 00:59:23;;;;;;;;;29.00;28.00;;;;;1.07;76.37;101492.16;5084075;27;47153;-75
2022/02/13 01:01:48;;;;;;;;;25.25;25.00;;;;;0.92;76.31;101460.72;5084513;27;45345;-75
2022/02/13 01:04:14;;;;;;;;;28.00;28.00;;;;;1.09;76.29;101480.66;5103046;27;45251;-75
2022/02/13 01:06:39;;;;;;;;;25.25;23.25;;;;;1.19;76.66;101486.16;5102513;27;45493;-76
2022/02/13 01:09:04;;;;;;;;;31.50;30.75;;;;;1.21;77.19;101475.59;5084006;27;47146;-76
2022/02/13 01:11:30;;;;;;;;;29.75;26.75;;;;;1.24;76.85;101470.19;5102770;27;45207;-76
2022/02/13 01:13:55;;;;;;;;;31.25;28.75;;;;;1.15;77.13;101453.25;5102770;27;45325;-76
2022/02/13 01:16:21;;;;;;;;;25.50;24.00;;;;;1.19;76.28;101462.59;5084179;27;45973;-75
2022/02/13 01:18:46;;;;;;;;;29.00;26.25;;;;;1.38;76.58;101485.88;5102304;27;45325;-75
2022/02/13 01:21:12;;;;;;;;;32.00;27.00;;;;;1.31;77.07;101463.63;5102239;27;45440;-76
2022/02/13 01:23:39;;;;;;;;;28.50;27.50;;;;;1.43;77.08;101471.66;5102560;27;45367;-75
2022/02/13 01:26:05;;;;;;;;;30.00;27.50;;;;;1.21;76.61;101437.16;5083755;27;45965;-75
2022/02/13 01:28:30;;;;;;;;;24.25;22.00;;;;;1.28;76.24;101449.88;5102227;27;45960;-76
2022/02/13 01:31:00;;;;;;;;;28.00;27.50;;;;;1.41;75.88;101482.25;5102321;27;45288;-76
2022/02/13 01:33:26;;;;;;;;;26.00;24.00;;;;;1.38;76.34;101478.00;5102403;27;45216;-76
2022/02/13 01:35:52;;;;;;;;;28.25;25.50;;;;;1.31;75.88;101468.00;5083385;27;45614;-76
2022/02/13 01:38:18;;;;;;;;;29.25;27.50;;;;;1.40;75.63;101477.09;5083705;27;45373;-76
2022/02/13 01:40:44;;;;;;;;;25.50;25.50;;;;;1.42;76.05;101480.44;5101442;27;45237;-76
2022/02/13 01:43:09;;;;;;;;;32.50;31.50;;;;;1.49;76.43;101486.97;5102385;27;45274;-76
2022/02/13 01:45:35;;;;;;;;;26.00;26.00;;;;;1.43;76.05;101466.44;5083577;27;47002;-76
2022/02/13 01:48:00;;;;;;;;;27.50;24.25;;;;;1.50;76.28;101478.19;5083635;27;47140;-76
2022/02/13 01:50:26;;;;;;;;;28.75;27.50;;;;;1.37;76.11;101454.53;5102098;27;45239;-77
2022/02/13 01:52:51;;;;;;;;;30.75;26.75;;;;;1.38;76.40;101456.22;5101917;27;45315;-77
2022/02/13 01:55:17;;;;;;;;;29.25;27.75;;;;;1.43;75.76;101456.78;5101906;27;45213;-76
2022/02/13 01:57:42;;;;;;;;;30.75;29.50;;;;;1.46;76.04;101472.28;5083443;27;47065;-77
2022/02/13 02:00:08;;;;;;;;;29.25;25.50;;;;;1.30;75.36;101448.84;5083537;27;45706;-77
2022/02/13 02:02:33;;;;;;;;;33.00;26.00;;;;;1.25;76.06;101438.66;5083460;27;45311;-77
2022/02/13 02:05:00;;;;;;;;;27.25;24.00;;;;;1.34;75.79;101452.94;5083336;27;45989;-77
2022/02/13 02:07:26;;;;;;;;;27.50;25.25;;;;;1.36;76.08;101458.94;5083074;27;46974;-77
2022/02/13 02:09:52;;;;;;;;;27.25;25.25;;;;;1.33;75.89;101453.91;5101434;27;45377;-77
2022/02/13 02:12:18;;;;;;;;;27.00;26.00;;;;;1.33;75.54;101450.44;5101844;27;45366;-76
2022/02/13 02:14:43;;;;;;;;;26.25;25.75;;;;;1.21;75.51;101428.47;5101522;27;45302;-77
2022/02/13 02:17:09;;;;;;;;;32.25;28.75;;;;;1.28;75.76;101442.84;5083161;27;48473;-77
2022/02/13 02:19:35;;;;;;;;;23.25;20.50;;;;;1.29;76.12;101448.94;5101621;27;45338;-77
2022/02/13 02:22:00;;;;;;;;;29.25;24.75;;;;;1.17;75.74;101424.34;5101529;27;45363;-77
2022/02/13 02:24:26;;;;;;;;;25.00;24.50;;;;;1.16;76.25;101417.44;5101290;27;45241;-77
2022/02/13 02:26:51;;;;;;;;;25.25;25.25;;;;;1.13;76.48;101406.22;5101244;27;45297;-77
2022/02/13 02:29:17;;;;;;;;;22.00;22.00;;;;;1.02;76.48;101390.34;5082915;27;45794;-77
2022/02/13 02:31:42;;;;;;;;;27.00;25.25;;;;;1.24;76.90;101418.66;5083273;27;45274;-77
2022/02/13 02:34:07;;;;;;;;;26.00;25.00;;;;;1.00;76.82;101371.25;5101259;27;45497;-77
2022/02/13 02:36:33;;;;;;;;;21.25;21.25;;;;;1.10;76.53;101389.84;5082545;27;46881;-77
2022/02/13 02:38:58;;;;;;;;;25.75;25.75;;;;;1.04;76.63;101375.38;5101107;27;45323;-77
2022/02/13 02:41:24;;;;;;;;;23.75;22.00;;;;;1.22;76.85;101406.56;5082942;27;45563;-77
2022/02/13 02:43:50;;;;;;;;;30.00;25.00;;;;;1.05;77.45;101373.59;5101032;27;45326;-77
2022/02/13 02:46:15;;;;;;;;;23.00;22.00;;;;;1.19;77.15;101380.56;5100934;27;46184;-77
2022/02/13 02:48:40;;;;;;;;;23.50;22.00;;;;;1.11;76.84;101363.56;5082742;27;45284;-77
2022/02/13 02:51:07;;;;;;;;;31.00;27.25;;;;;1.11;77.06;101358.31;5101117;27;45294;-77
2022/02/13 02:53:36;;;;;;;;;28.75;27.00;;;;;1.23;77.27;101375.03;5081527;27;47266;-77
2022/02/13 02:56:03;;;;;;;;;25.75;24.50;;;;;1.05;76.79;101337.75;5099404;27;47337;-77
2022/02/13 02:58:29;;;;;;;;;21.25;20.75;;;;;1.26;76.38;101372.22;5100962;27;45263;-77
2022/02/13 03:00:55;;;;;;;;;21.50;21.50;;;;;1.09;77.07;101347.13;5082554;27;45270;-77
2022/02/13 03:03:21;;;;;;;;;27.50;25.75;;;;;1.26;77.35;101361.75;5100731;27;45264;-77
2022/02/13 03:05:50;;;;;;;;;22.25;21.75;;;;;1.19;77.21;101352.59;5100734;27;45306;-77
2022/02/13 03:08:16;;;;;;;;;30.25;27.50;;;;;1.30;77.50;101356.31;5082452;27;45283;-77
2022/02/13 03:10:42;;;;;;;;;30.25;27.25;;;;;1.23;76.80;101342.78;5099245;27;45259;-77
2022/02/13 03:13:07;;;;;;;;;25.50;23.00;;;;;1.22;77.05;101333.22;5100552;27;45437;-77
2022/02/13 03:15:33;;;;;;;;;19.50;19.50;;;;;1.32;76.75;101349.22;5100651;27;45567;-77
2022/02/13 03:17:59;;;;;;;;;28.00;25.00;;;;;1.17;76.64;101328.28;5100342;27;45267;-77
2022/02/13 03:20:24;;;;;;;;;27.00;27.00;;;;;1.23;77.71;101332.31;5082269;27;45295;-78
2022/02/13 03:22:49;;;;;;;;;29.25;26.00;;;;;1.19;76.93;101329.03;5100239;27;45229;-77
2022/02/13 03:25:15;;;;;;;;;28.50;26.25;;;;;1.26;76.99;101342.59;5100501;27;45246;-77
2022/02/13 03:27:40;;;;;;;;;32.25;26.75;;;;;1.21;76.11;101328.94;5100156;27;45424;-77
2022/02/13 03:30:06;;;;;;;;;26.25;25.00;;;;;1.13;76.49;101317.19;5100646;27;45241;-77
2022/02/13 03:32:32;;;;;;;;;30.75;27.00;;;;;1.20;76.90;101324.66;5100376;27;45492;-77
2022/02/13 03:34:57;;;;;;;;;24.75;24.00;;;;;1.16;77.13;101315.31;5081782;27;47085;-77
2022/02/13 03:37:23;;;;;;;;;28.75;25.50;;;;;1.18;76.80;101318.66;5099849;27;45247;-77
2022/02/13 03:39:48;;;;;;;;;26.25;25.00;;;;;1.17;76.57;101311.75;5100402;27;45375;-78
2022/02/13 03:42:14;;;;;;;;;27.25;25.25;;;;;1.07;76.41;101296.63;5081748;27;47250;-78
2022/02/13 03:44:39;;;;;;;;;32.00;27.75;;;;;1.26;76.60;101324.25;5081956;27;48056;-77
2022/02/13 03:47:06;;;;;;;;;23.50;22.75;;;;;1.26;76.37;101317.22;5081727;27;45316;-77
2022/02/13 03:49:31;;;;;;;;;24.50;24.50;;;;;1.24;76.08;101316.50;5082161;27;45375;-78
2022/02/13 03:51:57;;;;;;;;;28.25;24.25;;;;;1.17;76.04;101303.91;5099889;27;45319;-78
2022/02/13 03:54:22;;;;;;;;;23.50;21.75;;;;;1.10;76.66;101288.56;5099942;27;45226;-78
2022/02/13 03:56:48;;;;;;;;;28.50;26.50;;;;;1.10;76.07;101285.97;5081767;27;45810;-78
2022/02/13 03:59:13;;;;;;;;;23.50;23.00;;;;;1.22;76.42;101309.66;5081894;27;45275;-78
2022/02/13 04:01:39;;;;;;;;;24.50;21.25;;;;;1.04;76.06;101286.34;5100068;27;45303;-78
2022/02/13 04:04:04;;;;;;;;;17.75;17.75;;;;;1.05;76.83;101293.25;5101805;27;45885;-78
2022/02/13 04:06:30;;;;;;;;;28.75;24.25;;;;;1.13;76.12;101304.09;5085172;27;45690;-79
2022/02/13 04:08:55;;;;;;;;;26.00;23.00;;;;;0.94;76.89;101269.56;5104068;27;45291;-78
2022/02/13 04:11:20;;;;;;;;;22.25;21.75;;;;;1.05;76.59;101285.41;5104105;27;45528;-78
2022/02/13 04:13:46;;;;;;;;;20.00;20.00;;;;;1.11;76.90;101284.19;5103869;27;46224;-78
2022/02/13 04:16:11;;;;;;;;;25.00;24.25;;;;;1.04;76.85;101282.91;5104422;27;45271;-78
2022/02/13 04:18:36;;;;;;;;;25.00;22.50;;;;;0.98;76.48;101278.88;5104495;27;45283;-77
2022/02/13 04:21:02;;;;;;;;;23.00;21.50;;;;;0.98;76.73;101286.72;5105660;27;45781;-78
2022/02/13 04:23:29;;;;;;;;;22.25;20.50;;;;;0.97;76.61;101279.81;5106118;27;46098;-78
2022/02/13 04:25:54;;;;;;;;;24.25;23.50;;;;;0.95;76.24;101282.53;5086811;27;45314;-78
2022/02/13 04:28:20;;;;;;;;;20.50;20.50;;;;;1.01;76.37;101286.53;5087822;27;45347;-78
2022/02/13 04:30:45;;;;;;;;;20.50;19.75;;;;;0.78;76.82;101251.38;5087977;27;46431;-78
2022/02/13 04:33:11;;;;;;;;;20.50;20.50;;;;;0.82;76.87;101252.84;5089158;27;48382;-78
2022/02/13 04:35:36;;;;;;;;;22.00;20.25;;;;;0.92;76.72;101267.03;5107560;27;45360;-78
2022/02/13 04:38:02;;;;;;;;;25.25;21.25;;;;;1.00;76.74;101285.72;5108345;27;45339;-78
2022/02/13 04:40:28;;;;;;;;;23.00;22.00;;;;;0.97;77.25;101271.97;5107534;27;45456;-78
2022/02/13 04:42:53;;;;;;;;;24.25;18.25;;;;;0.74;76.39;101246.31;5108476;27;46125;-78
2022/02/13 04:45:19;;;;;;;;;27.00;20.50;;;;;0.86;76.69;101256.94;5107063;27;45226;-78
2022/02/13 04:47:44;;;;;;;;;28.75;27.25;;;;;0.91;76.71;101267.13;5088537;27;45282;-78
2022/02/13 04:50:11;;;;;;;;;22.50;22.50;;;;;1.04;77.21;101277.66;5107512;27;45420;-78
2022/02/13 04:52:37;;;;;;;;;24.50;23.00;;;;;0.98;76.91;101276.25;5104618;27;48147;-77
2022/02/13 04:55:03;;;;;;;;;26.25;23.75;;;;;1.04;76.83;101282.91;5087630;27;45724;-79
2022/02/13 04:57:29;;;;;;;;;22.25;21.25;;;;;1.04;76.93;101278.50;5107029;27;45219;-78
2022/02/13 04:59:54;;;;;;;;;27.25;22.00;;;;;0.95;77.03;101251.13;5104754;27;46179;-78
2022/02/13 05:02:20;;;;;;;;;22.25;22.25;;;;;0.93;76.86;101237.28;5107219;27;46172;-78
2022/02/13 05:04:45;;;;;;;;;22.75;22.50;;;;;1.03;76.97;101261.13;5087708;27;45318;-78
2022/02/13 05:07:11;;;;;;;;;23.75;23.75;;;;;1.03;76.76;101255.88;5107646;27;45290;-78
2022/02/13 05:09:37;;;;;;;;;22.75;20.50;;;;;0.99;76.68;101241.31;5107540;27;45421;-77
2022/02/13 05:12:03;;;;;;;;;27.25;23.50;;;;;0.63;76.68;101183.38;5088458;27;48558;-78
2022/02/13 05:14:28;;;;;;;;;20.75;20.25;;;;;0.72;77.43;101200.28;5106323;27;45210;-78
2022/02/13 05:16:54;;;;;;;;;23.00;23.00;;;;;0.80;77.02;101207.59;5106337;27;45157;-77
2022/02/13 05:19:19;;;;;;;;;20.50;20.50;;;;;0.90;76.86;101215.72;5086859;27;45848;-78
2022/02/13 05:21:45;;;;;;;;;27.75;23.25;;;;;0.74;76.98;101201.00;5086899;27;46972;-78
2022/02/13 05:24:10;;;;;;;;;25.00;25.00;;;;;0.78;76.63;101209.50;5106501;27;45235;-78
2022/02/13 05:26:36;;;;;;;;;22.25;22.25;;;;;0.80;76.88;101210.22;5105606;27;45792;-77
2022/02/13 05:29:01;;;;;;;;;24.25;19.75;;;;;0.83;77.50;101208.25;5105351;27;45473;-78
2022/02/13 05:31:30;;;;;;;;;20.25;16.75;;;;;0.84;77.49;101203.88;5105144;27;46025;-78
2022/02/13 05:33:58;;;;;;;;;18.50;16.25;;;;;0.75;77.06;101190.44;5104715;27;45332;-78
2022/02/13 05:36:23;;;;;;;;;23.75;21.00;;;;;0.84;77.37;101203.88;5103484;27;45305;-77
2022/02/13 05:38:48;;;;;;;;;27.00;24.75;;;;;0.72;77.45;101180.16;5104426;27;45247;-77
2022/02/13 05:41:14;;;;;;;;;28.75;25.75;;;;;0.71;77.17;101173.25;5084497;27;47020;-77
2022/02/13 05:43:39;;;;;;;;;32.00;29.25;;;;;0.83;77.46;101187.31;5084944;27;45959;-77
2022/02/13 05:46:04;;;;;;;;;26.00;23.75;;;;;0.81;77.27;101176.09;5084437;27;45257;-77
2022/02/13 05:48:31;;;;;;;;;23.00;23.00;;;;;0.81;77.50;101175.28;5084840;27;47325;-77
2022/02/13 05:50:56;;;;;;;;;25.00;24.25;;;;;0.78;77.26;101163.22;5103562;27;46111;-77
2022/02/13 05:53:22;;;;;;;;;24.50;23.75;;;;;0.80;77.12;101156.09;5103170;27;45283;-77
2022/02/13 05:55:47;;;;;;;;;21.50;20.75;;;;;0.86;77.55;101171.41;5102906;27;45297;-77
2022/02/13 05:58:12;;;;;;;;;16.00;15.00;;;;;0.98;76.97;101180.25;5102694;27;45283;-77
2022/02/13 06:00:38;;;;;;;;;23.00;21.00;;;;;0.83;77.11;101155.06;5083940;27;48303;-77
2022/02/13 06:03:04;;;;;;;;;23.00;21.25;;;;;0.92;77.28;101170.19;5084038;27;45303;-77
2022/02/13 06:05:29;;;;;;;;;25.00;22.25;;;;;0.98;77.24;101176.78;5102709;27;45258;-77
2022/02/13 06:07:55;;;;;;;;;22.75;20.50;;;;;0.86;77.31;101150.47;5102349;27;45306;-77
2022/02/13 06:10:20;;;;;;;;;27.75;24.50;;;;;0.92;77.12;101169.31;5083460;27;48158;-77
2022/02/13 06:12:48;;;;;;;;;26.75;20.75;;;;;0.90;77.33;101160.75;5083651;27;45893;-76
2022/02/13 06:15:13;;;;;;;;;24.75;23.50;;;;;0.87;77.29;101153.94;5102144;27;45268;-77
2022/02/13 06:17:38;;;;;;;;;25.75;25.25;;;;;0.86;77.97;101140.00;5101846;27;45307;-77
2022/02/13 06:20:05;;;;;;;;;24.00;21.25;;;;;1.00;77.10;101146.97;5083296;27;48410;-78
2022/02/13 06:22:31;;;;;;;;;31.25;30.50;;;;;1.02;77.47;101162.56;5101531;27;45266;-77
2022/02/13 06:24:56;;;;;;;;;25.00;22.75;;;;;1.03;77.35;101164.25;5082907;27;45362;-77
2022/02/13 06:27:22;;;;;;;;;27.00;26.00;;;;;0.95;77.65;101150.81;5083170;27;47342;-77
2022/02/13 06:29:49;;;;;;;;;25.50;24.75;;;;;1.08;77.45;101170.00;5101579;27;45302;-77
2022/02/13 06:32:15;;;;;;;;;25.00;25.00;;;;;1.00;77.40;101141.72;5083197;27;45840;-77
2022/02/13 06:34:40;;;;;;;;;27.75;24.75;;;;;1.05;77.67;101144.03;5100333;27;45269;-77
2022/02/13 06:37:05;;;;;;;;;25.25;23.50;;;;;1.05;77.04;101146.63;5097209;27;45336;-77
2022/02/13 06:39:31;;;;;;;;;21.50;21.00;;;;;0.97;77.34;101130.59;5098515;27;45517;-77
2022/02/13 06:41:56;;;;;;;;;24.75;24.75;;;;;1.00;77.76;101136.50;5101556;27;45386;-77
2022/02/13 06:44:22;;;;;;;;;21.75;20.75;;;;;1.04;77.21;101144.97;5103404;27;45204;-77
2022/02/13 06:46:47;;;;;;;;;27.25;25.25;;;;;1.08;77.63;101156.91;5102447;27;45248;-78
2022/02/13 06:49:13;;;;;;;;;26.50;25.25;;;;;1.13;78.27;101161.84;5104219;27;45288;-76
2022/02/13 06:51:38;;;;;;;;;27.00;22.75;;;;;1.17;77.87;101165.94;5085313;27;45756;-78
2022/02/13 06:54:03;;;;;;;;;23.25;22.50;;;;;1.04;77.57;101141.53;5102929;27;45465;-78
2022/02/13 06:56:29;;;;;;;;;26.25;22.50;;;;;1.06;77.37;101123.91;5103052;27;45251;-78
2022/02/13 06:58:54;;;;;;;;;24.75;23.75;;;;;1.16;77.55;101142.50;5102695;27;45291;-77
2022/02/13 07:01:19;;;;;;;;;24.25;21.75;;;;;1.05;77.93;101117.03;5101859;27;45300;-78
2022/02/13 07:03:45;;;;;;;;;22.00;21.75;;;;;1.27;77.67;101150.47;5104484;27;45296;-78
2022/02/13 07:06:10;;;;;;;;;25.00;25.00;;;;;1.19;77.37;101127.41;5105474;27;45454;-78
2022/02/13 07:08:35;;;;;;;;;21.25;21.25;;;;;1.22;77.59;101124.56;5104186;27;46273;-78
2022/02/13 07:11:01;;;;;;;;;27.50;25.75;;;;;1.22;76.79;101121.09;5101564;27;45201;-78
2022/02/13 07:13:27;;;;;;;;;22.75;22.75;;;;;1.23;77.42;101120.19;5100731;27;45370;-79
2022/02/13 07:15:53;;;;;;;;;21.25;20.50;;;;;1.12;77.36;101105.19;5084792;27;45916;-80
2022/02/13 07:18:18;;;;;;;;;24.50;24.50;;;;;1.18;77.36;101112.63;5087708;27;46066;-80
2022/02/13 07:20:44;;;;;;;;;25.75;25.00;;;;;1.14;77.97;101098.09;5089522;27;45354;-80
2022/02/13 07:23:09;;;;;;;;;24.50;22.00;;;;;1.12;77.62;101100.81;5106161;27;45464;-79
2022/02/13 07:25:35;;;;;;;;;20.75;20.75;;;;;1.24;78.17;101114.00;5101592;27;45429;-79
2022/02/13 07:28:58;;;;;;;;;28.00;27.00;;;;;0.93;77.41;101055.84;5084097;27;47047;-82
2022/02/13 07:30:46;;;;;;;;;29.00;28.00;;;;;1.14;77.67;101095.47;5111292;27;45255;-83
2022/02/13 07:33:12;;;;;;;;;27.75;26.50;;;;;1.31;78.11;101119.63;5085029;27;45417;-77
2022/02/13 07:35:40;;;;;;;;;30.75;26.25;;;;;1.31;78.10;101115.25;5102348;27;45262;-78
2022/02/13 07:38:06;;;;;;;;;22.00;21.00;;;;;1.25;77.75;101107.81;5103207;27;46090;-77
2022/02/13 07:40:32;;;;;;;;;24.25;22.00;;;;;1.34;78.29;101106.34;5082235;27;45308;-77
2022/02/13 07:42:57;;;;;;;;;25.75;22.25;;;;;1.45;77.77;101110.84;5100709;27;45325;-77
2022/02/13 07:45:22;;;;;;;;;28.00;26.75;;;;;1.37;78.58;101093.03;5082019;27;46051;-76
2022/02/13 07:47:48;;;;;;;;;25.00;21.75;;;;;1.40;78.27;101092.00;5100373;27;46110;-77
2022/02/13 07:50:13;;;;;;;;;26.25;25.50;;;;;1.55;77.91;101104.03;5100420;27;45310;-77
2022/02/13 07:52:38;;;;;;;;;26.25;23.50;;;;;1.54;78.64;101083.19;5081784;27;45311;-77
2022/02/13 07:55:05;;;;;;;;;27.50;24.25;;;;;1.64;78.97;101098.16;5081597;27;46176;-76
2022/02/13 07:57:31;;;;;;;;;29.50;26.25;;;;;1.68;78.68;101106.66;5077797;27;48027;-75
2022/02/13 07:59:56;;;;;;;;;24.75;21.75;;;;;1.73;77.98;101101.91;5084016;27;45371;-77
2022/02/13 08:02:22;;;;;;;;;27.50;24.50;;;;;1.68;77.95;101095.34;5100372;27;45259;-77
2022/02/13 08:04:47;;;;;;;;;24.00;22.25;;;;;1.76;78.54;101108.72;5100112;27;45484;-77
2022/02/13 08:07:13;;;;;;;;;30.25;25.75;;;;;1.74;78.38;101085.25;5099782;27;45931;-77
2022/02/13 08:09:38;;;;;;;;;30.25;27.50;;;;;1.86;78.17;101087.97;5081619;27;45291;-77
2022/02/13 08:12:04;;;;;;;;;26.25;26.00;;;;;1.81;78.37;101075.19;5100116;27;45242;-77
2022/02/13 08:14:29;;;;;;;;;29.00;22.25;;;;;1.86;78.56;101070.44;5081545;27;47022;-77
2022/02/13 08:16:55;;;;;;;;;27.50;24.50;;;;;1.80;78.13;101049.06;5099954;27;45209;-77
2022/02/13 08:19:20;;;;;;;;;25.25;25.25;;;;;1.96;78.45;101065.38;5081166;27;45246;-77
2022/02/13 08:21:45;;;;;;;;;22.75;22.00;;;;;1.99;78.59;101059.06;5100009;27;45262;-76
2022/02/13 08:24:11;;;;;;;;;25.50;25.00;;;;;1.88;79.01;101031.00;5081392;27;46002;-77
2022/02/13 08:26:36;;;;;;;;;25.50;24.50;;;;;1.99;78.69;101028.47;5099649;27;45297;-77
2022/02/13 08:29:02;;;;;;;;;28.75;28.75;;;;;2.25;78.20;101059.81;5081514;27;46102;-76
2022/02/13 08:31:28;;;;;;;;;32.75;27.50;;;;;1.89;78.28;100993.38;5099811;27;45561;-78
2022/02/13 08:33:53;;;;;;;;;31.75;29.25;;;;;2.29;78.10;101034.22;5081141;27;46008;-76
2022/02/13 08:36:18;;;;;;;;;29.00;23.25;;;;;2.32;78.78;101015.63;5080875;27;48196;-77
2022/02/13 08:38:44;;;;;;;;;28.00;27.25;;;;;2.40;78.71;101012.44;5099656;27;45362;-77
2022/02/13 08:41:09;;;;;;;;;26.75;26.75;;;;;2.59;78.23;101027.63;5100602;27;45328;-77
2022/02/13 08:43:35;;;;;;;;;25.00;22.50;;;;;2.60;78.18;101010.94;5100684;27;45310;-75
2022/02/13 08:46:01;;;;;;;;;25.75;24.25;;;;;2.60;79.06;100989.94;5101356;27;46089;-76
2022/02/13 08:48:27;;;;;;;;;23.25;21.75;;;;;2.76;78.76;100999.28;5100580;27;45234;-77
2022/02/13 08:50:53;;;;;;;;;20.75;20.75;;;;;2.86;78.62;100989.75;5087240;27;45245;-78
2022/02/13 08:53:18;;;;;;;;;24.50;23.25;;;;;2.89;78.53;100984.28;5102995;27;45850;-76
2022/02/13 08:55:44;;;;;;;;;22.75;20.50;;;;;2.99;79.09;100967.81;5102667;27;46760;-75
2022/02/13 08:58:09;;;;;;;;;28.25;27.25;;;;;3.21;78.73;100980.09;5103017;27;45234;-75
2022/02/13 09:00:35;;;;;;;;;27.75;26.00;;;;;3.20;78.99;100953.97;5103372;27;45441;-75
2022/02/13 09:03:01;;;;;;;;;27.00;24.75;;;;;3.28;78.79;100972.56;5102901;27;45279;-76
2022/02/13 09:05:26;;;;;;;;;30.75;29.75;;;;;3.48;78.91;100994.66;5102812;27;45232;-75
2022/02/13 09:07:52;;;;;;;;;18.75;17.25;;;;;3.45;78.92;100966.00;5084303;27;45743;-76
2022/02/13 09:10:18;;;;;;;;;30.75;29.00;;;;;3.49;78.88;100958.69;5102871;27;45264;-76
2022/02/13 09:12:45;;;;;;;;;27.25;25.50;;;;;3.68;77.90;100984.34;5102514;27;45266;-75
2022/02/13 09:15:11;;;;;;;;;27.75;22.75;;;;;3.72;77.98;100971.78;5084016;27;46164;-77
2022/02/13 09:17:37;;;;;;;;;25.75;25.75;;;;;3.79;78.42;100970.34;5083893;27;45449;-76
2022/02/13 09:20:04;;;;;;;;;22.50;21.00;;;;;3.80;78.26;100961.47;5103247;27;45426;-76
2022/02/13 09:22:30;;;;;;;;;27.25;23.75;;;;;3.77;77.77;100961.75;5107769;27;45427;-75
2022/02/13 09:24:55;;;;;;;;;30.50;27.75;;;;;3.92;77.97;100970.16;5102895;27;45802;-75
2022/02/13 09:27:20;;;;;;;;;30.50;27.50;;;;;3.85;77.94;100943.53;5102262;27;45218;-75
2022/02/13 09:29:46;;;;;;;;;24.50;23.50;;;;;4.00;78.62;100956.41;5102647;27;45234;-75
2022/02/13 09:32:12;;;;;;;;;28.50;27.25;;;;;3.91;78.28;100935.16;5083812;27;46447;-76
2022/02/13 09:34:37;;;;;;;;;27.50;26.00;;;;;3.96;78.07;100937.41;5083866;27;46946;-76
2022/02/13 09:37:03;;;;;;;;;30.75;29.25;;;;;4.10;78.71;100948.59;5100687;27;45529;-77
2022/02/13 09:39:29;;;;;;;;;23.50;22.75;;;;;4.01;78.67;100914.19;5102146;27;45452;-77
2022/02/13 09:41:55;;;;;;;;;27.00;24.00;;;;;4.08;78.50;100908.41;5083741;27;45481;-77
2022/02/13 09:44:23;;;;;;;;;26.75;23.00;;;;;4.24;78.82;100916.72;5101902;27;46337;-77
2022/02/13 09:46:48;;;;;;;;;24.50;23.00;;;;;4.56;79.05;100949.19;5102218;27;45297;-75
2022/02/13 09:49:19;;;;;;;;;25.75;24.50;;;;;4.58;79.20;100925.38;5100290;27;45593;-76
2022/02/13 09:51:44;;;;;;;;;31.50;26.00;;;;;4.59;78.86;100908.59;5079832;27;46461;-76
2022/02/13 09:54:10;;;;;;;;;28.25;27.50;;;;;4.71;78.92;100909.34;5082455;27;46023;-76
2022/02/13 09:56:36;;;;;;;;;32.25;26.50;;;;;4.97;78.72;100922.09;5100707;27;45273;-76
2022/02/13 09:59:03;;;;;;;;;33.75;27.75;;;;;5.06;78.41;100908.13;5082498;27;45377;-76
2022/02/13 10:01:40;;;;;;;;;24.50;22.00;;;;;4.90;78.36;100856.75;5100688;27;45612;-76
2022/02/13 10:04:06;;;;;;;;;26.00;24.25;;;;;5.28;78.55;100891.25;5098778;27;47410;-76
2022/02/13 10:06:36;;;;;;;;;24.25;21.50;;;;;5.41;78.52;100887.50;5101103;27;45685;-76
2022/02/13 10:09:02;;;;;;;;;26.50;24.50;;;;;5.54;78.45;100884.63;5082560;27;45409;-76
2022/02/13 10:11:35;;;;;;;;;30.00;27.25;;;;;5.71;78.31;100882.28;5100733;27;45283;-75
2022/02/13 10:14:06;;;;;;;;;26.75;26.75;;;;;5.79;77.67;100869.22;5100628;27;45373;-77
2022/02/13 10:16:36;;;;;;;;;27.00;24.75;;;;;5.93;77.57;100866.16;5100944;27;45285;-77
2022/02/13 10:19:09;;;;;;;;;22.75;21.25;;;;;6.01;77.73;100844.34;5101630;27;45498;-76
2022/02/13 10:21:50;;;;;;;;;27.50;25.00;;;;;6.15;77.17;100832.53;5084376;27;46065;-76
2022/02/13 10:24:19;;;;;;;;;28.00;25.25;;;;;6.39;77.03;100844.44;5100006;27;45384;-76
2022/02/13 10:26:48;;;;;;;;;25.50;25.00;;;;;6.51;77.11;100839.78;5101275;27;45370;-75
2022/02/13 10:29:13;;;;;;;;;23.50;19.75;;;;;6.46;76.97;100818.25;5082173;27;45371;-76
2022/02/13 10:31:43;;;;;;;;;22.00;21.75;;;;;6.75;76.06;100845.53;5100536;27;45253;-77
2022/02/13 10:34:13;;;;;;;;;23.50;21.00;;;;;6.85;76.27;100833.09;5082467;27;48332;-75
2022/02/13 10:36:44;;;;;;;;;24.25;22.25;;;;;6.79;76.89;100807.25;5105472;27;45318;-77
2022/02/13 10:39:26;;;;;;;;;25.25;23.00;;;;;6.91;75.79;100811.38;5112001;27;45377;-77
2022/02/13 10:41:52;;;;;;;;;24.25;24.25;;;;;7.04;75.83;100794.34;5099165;27;45240;-77
2022/02/13 10:44:28;;;;;;;;;23.00;22.50;;;;;7.19;75.64;100802.59;5108998;27;46008;-77
2022/02/13 10:46:54;;;;;;;;;24.00;22.67;;;;;7.22;76.10;100797.00;5100310;27;45416;-77
2022/02/13 10:49:20;;;;;;;;;20.67;20.67;;;;;7.35;75.77;100795.78;5099302;27;45424;-76
2022/02/13 10:51:46;;;;;;;;;23.50;22.75;;;;;7.47;75.50;100799.00;5099917;27;45400;-76
2022/02/13 10:54:12;;;;;;;;;24.67;22.00;;;;;7.60;75.67;100804.75;5099645;27;46221;-75
2022/02/13 10:56:38;;;;;;;;;24.00;19.00;;;;;7.72;75.11;100805.34;5081590;27;45367;-76
2022/02/13 10:59:12;;;;;;;;;20.67;18.33;;;;;7.75;75.02;100775.91;5102391;27;45273;-74
2022/02/13 11:01:38;;;;;;;;;20.33;20.00;;;;;7.98;74.64;100791.28;5099932;27;45296;-76
2022/02/13 11:04:04;;;;;;;;;24.33;24.00;;;;;8.00;74.63;100764.69;5100196;27;45341;-76
2022/02/13 11:06:35;;;;;;;;;24.67;23.00;;;;;8.19;74.63;100774.19;5099862;27;45487;-76
2022/02/13 11:09:15;;;;;;;;;24.00;22.67;;;;;8.30;74.28;100765.16;5080167;27;45374;-77
2022/02/13 11:11:42;;;;;;;;;19.00;15.00;;;;;8.37;74.18;100755.59;5075524;27;45465;-75